sensor_id;sensor_type;location;lat;lon;timestamp;P1;durP1;ratioP1;P2;durP2;ratioP2
70169;SDS011;57543;45.442;9.212;2024-03-08T00:00:39;24.13;;;13.65;;
70169;SDS011;57543;45.442;9.212;2024-03-08T00:03:43;22.83;;;13.95;;
70169;SDS011;57543;45.442;9.212;2024-03-08T00:06:49;21.57;;;13.30;;
70169;SDS011;57543;45.442;9.212;2024-03-08T00:09:56;23.27;;;13.63;;
70169;SDS011;57543;45.442;9.212;2024-03-08T00:13:00;22.75;;;14.30;;
70169;SDS011;57543;45.442;9.212;2024-03-08T00:16:04;23.10;;;13.30;;
70169;SDS011;57543;45.442;9.212;2024-03-08T00:19:08;23.48;;;13.70;;
70169;SDS011;57543;45.442;9.212;2024-03-08T00:22:12;25.20;;;13.97;;
70169;SDS011;57543;45.442;9.212;2024-03-08T00:25:16;27.13;;;15.20;;
70169;SDS011;57543;45.442;9.212;2024-03-08T00:28:20;26.60;;;15.73;;
70169;SDS011;57543;45.442;9.212;2024-03-08T00:31:24;23.63;;;15.55;;
70169;SDS011;57543;45.442;9.212;2024-03-08T00:34:28;25.23;;;15.57;;
70169;SDS011;57543;45.442;9.212;2024-03-08T00:37:31;25.57;;;16.17;;
70169;SDS011;57543;45.442;9.212;2024-03-08T00:40:35;30.80;;;17.08;;
70169;SDS011;57543;45.442;9.212;2024-03-08T00:43:43;28.80;;;17.42;;
70169;SDS011;57543;45.442;9.212;2024-03-08T00:46:50;26.35;;;16.45;;
70169;SDS011;57543;45.442;9.212;2024-03-08T00:49:54;27.35;;;16.40;;
70169;SDS011;57543;45.442;9.212;2024-03-08T00:53:05;27.73;;;15.53;;
70169;SDS011;57543;45.442;9.212;2024-03-08T00:56:09;28.48;;;16.42;;
70169;SDS011;57543;45.442;9.212;2024-03-08T00:59:14;28.00;;;15.50;;
70169;SDS011;57543;45.442;9.212;2024-03-08T01:02:23;26.05;;;14.77;;
70169;SDS011;57543;45.442;9.212;2024-03-08T01:05:27;28.92;;;15.57;;
70169;SDS011;57543;45.442;9.212;2024-03-08T01:08:33;25.37;;;15.20;;
70169;SDS011;57543;45.442;9.212;2024-03-08T01:11:48;28.95;;;14.88;;
70169;SDS011;57543;45.442;9.212;2024-03-08T01:14:53;27.35;;;15.70;;
70169;SDS011;57543;45.442;9.212;2024-03-08T01:17:58;27.60;;;14.65;;
70169;SDS011;57543;45.442;9.212;2024-03-08T01:21:07;25.55;;;14.73;;
70169;SDS011;57543;45.442;9.212;2024-03-08T01:24:10;25.97;;;13.80;;
70169;SDS011;57543;45.442;9.212;2024-03-08T01:27:14;22.15;;;13.55;;
70169;SDS011;57543;45.442;9.212;2024-03-08T01:30:18;24.23;;;14.00;;
70169;SDS011;57543;45.442;9.212;2024-03-08T01:33:24;23.15;;;13.45;;
70169;SDS011;57543;45.442;9.212;2024-03-08T01:36:28;23.33;;;14.13;;
70169;SDS011;57543;45.442;9.212;2024-03-08T01:39:37;22.87;;;12.97;;
70169;SDS011;57543;45.442;9.212;2024-03-08T01:42:43;24.48;;;13.48;;
70169;SDS011;57543;45.442;9.212;2024-03-08T01:45:47;22.88;;;12.55;;
70169;SDS011;57543;45.442;9.212;2024-03-08T01:48:51;28.30;;;14.07;;
70169;SDS011;57543;45.442;9.212;2024-03-08T01:51:55;23.73;;;12.60;;
70169;SDS011;57543;45.442;9.212;2024-03-08T01:55:03;23.10;;;13.20;;
70169;SDS011;57543;45.442;9.212;2024-03-08T01:58:10;24.70;;;13.00;;
70169;SDS011;57543;45.442;9.212;2024-03-08T02:01:16;22.15;;;12.48;;
70169;SDS011;57543;45.442;9.212;2024-03-08T02:04:25;22.90;;;12.85;;
70169;SDS011;57543;45.442;9.212;2024-03-08T02:07:39;21.92;;;12.80;;
70169;SDS011;57543;45.442;9.212;2024-03-08T02:10:47;23.87;;;12.50;;
70169;SDS011;57543;45.442;9.212;2024-03-08T02:13:56;25.83;;;12.95;;
70169;SDS011;57543;45.442;9.212;2024-03-08T02:17:01;24.27;;;12.55;;
70169;SDS011;57543;45.442;9.212;2024-03-08T02:20:07;25.00;;;13.02;;
70169;SDS011;57543;45.442;9.212;2024-03-08T02:23:13;24.85;;;12.45;;
70169;SDS011;57543;45.442;9.212;2024-03-08T02:26:20;23.50;;;12.50;;
70169;SDS011;57543;45.442;9.212;2024-03-08T02:29:23;25.13;;;12.95;;
70169;SDS011;57543;45.442;9.212;2024-03-08T02:32:27;24.15;;;13.02;;
70169;SDS011;57543;45.442;9.212;2024-03-08T02:35:31;26.02;;;12.32;;
70169;SDS011;57543;45.442;9.212;2024-03-08T02:38:39;24.75;;;13.35;;
70169;SDS011;57543;45.442;9.212;2024-03-08T02:41:47;22.17;;;12.63;;
70169;SDS011;57543;45.442;9.212;2024-03-08T02:44:53;24.35;;;13.27;;
70169;SDS011;57543;45.442;9.212;2024-03-08T02:47:58;27.60;;;13.18;;
70169;SDS011;57543;45.442;9.212;2024-03-08T02:51:05;21.73;;;12.27;;
70169;SDS011;57543;45.442;9.212;2024-03-08T02:54:11;25.45;;;13.60;;
70169;SDS011;57543;45.442;9.212;2024-03-08T02:57:15;26.20;;;13.87;;
70169;SDS011;57543;45.442;9.212;2024-03-08T03:00:22;23.42;;;13.57;;
70169;SDS011;57543;45.442;9.212;2024-03-08T03:03:26;24.80;;;12.98;;
70169;SDS011;57543;45.442;9.212;2024-03-08T03:06:30;21.95;;;12.85;;
70169;SDS011;57543;45.442;9.212;2024-03-08T03:09:37;22.90;;;12.52;;
70169;SDS011;57543;45.442;9.212;2024-03-08T03:12:44;25.17;;;14.07;;
70169;SDS011;57543;45.442;9.212;2024-03-08T03:15:57;25.55;;;13.45;;
70169;SDS011;57543;45.442;9.212;2024-03-08T03:19:01;22.70;;;13.13;;
70169;SDS011;57543;45.442;9.212;2024-03-08T03:22:08;25.52;;;13.60;;
70169;SDS011;57543;45.442;9.212;2024-03-08T03:25:14;25.15;;;13.68;;
70169;SDS011;57543;45.442;9.212;2024-03-08T03:28:18;24.47;;;13.67;;
70169;SDS011;57543;45.442;9.212;2024-03-08T03:31:25;25.35;;;14.30;;
70169;SDS011;57543;45.442;9.212;2024-03-08T03:34:31;26.23;;;14.63;;
70169;SDS011;57543;45.442;9.212;2024-03-08T03:37:44;26.85;;;14.35;;
70169;SDS011;57543;45.442;9.212;2024-03-08T03:41:06;25.33;;;13.88;;
70169;SDS011;57543;45.442;9.212;2024-03-08T03:44:13;27.67;;;14.53;;
70169;SDS011;57543;45.442;9.212;2024-03-08T03:47:19;27.20;;;14.77;;
70169;SDS011;57543;45.442;9.212;2024-03-08T03:50:25;27.83;;;15.35;;
70169;SDS011;57543;45.442;9.212;2024-03-08T03:53:29;26.98;;;14.93;;
70169;SDS011;57543;45.442;9.212;2024-03-08T03:56:33;26.17;;;14.50;;
70169;SDS011;57543;45.442;9.212;2024-03-08T03:59:36;27.60;;;14.47;;
70169;SDS011;57543;45.442;9.212;2024-03-08T04:02:43;27.63;;;14.77;;
70169;SDS011;57543;45.442;9.212;2024-03-08T04:05:47;29.05;;;15.27;;
70169;SDS011;57543;45.442;9.212;2024-03-08T04:08:54;25.85;;;14.20;;
70169;SDS011;57543;45.442;9.212;2024-03-08T04:11:58;27.60;;;14.68;;
70169;SDS011;57543;45.442;9.212;2024-03-08T04:15:02;26.43;;;14.90;;
70169;SDS011;57543;45.442;9.212;2024-03-08T04:18:09;29.17;;;15.70;;
70169;SDS011;57543;45.442;9.212;2024-03-08T04:21:12;26.65;;;14.70;;
70169;SDS011;57543;45.442;9.212;2024-03-08T04:24:17;29.35;;;14.30;;
70169;SDS011;57543;45.442;9.212;2024-03-08T04:27:23;28.20;;;15.50;;
70169;SDS011;57543;45.442;9.212;2024-03-08T04:30:30;26.53;;;13.97;;
70169;SDS011;57543;45.442;9.212;2024-03-08T04:33:34;27.52;;;14.88;;
70169;SDS011;57543;45.442;9.212;2024-03-08T04:36:40;27.58;;;15.48;;
70169;SDS011;57543;45.442;9.212;2024-03-08T04:39:43;26.75;;;15.23;;
70169;SDS011;57543;45.442;9.212;2024-03-08T04:42:46;32.83;;;16.95;;
70169;SDS011;57543;45.442;9.212;2024-03-08T04:45:54;28.20;;;15.80;;
70169;SDS011;57543;45.442;9.212;2024-03-08T04:48:58;30.77;;;16.70;;
70169;SDS011;57543;45.442;9.212;2024-03-08T04:52:02;29.92;;;16.17;;
70169;SDS011;57543;45.442;9.212;2024-03-08T04:55:06;31.00;;;16.48;;
70169;SDS011;57543;45.442;9.212;2024-03-08T04:58:11;33.97;;;17.95;;
70169;SDS011;57543;45.442;9.212;2024-03-08T05:01:15;29.40;;;15.70;;
70169;SDS011;57543;45.442;9.212;2024-03-08T05:04:19;30.98;;;16.70;;
70169;SDS011;57543;45.442;9.212;2024-03-08T05:07:24;32.78;;;17.63;;
70169;SDS011;57543;45.442;9.212;2024-03-08T05:10:29;31.58;;;16.33;;
70169;SDS011;57543;45.442;9.212;2024-03-08T05:13:35;33.58;;;17.17;;
70169;SDS011;57543;45.442;9.212;2024-03-08T05:16:43;29.77;;;16.70;;
70169;SDS011;57543;45.442;9.212;2024-03-08T05:19:51;29.92;;;15.65;;
70169;SDS011;57543;45.442;9.212;2024-03-08T05:22:55;26.50;;;14.52;;
70169;SDS011;57543;45.442;9.212;2024-03-08T05:25:58;28.48;;;15.32;;
70169;SDS011;57543;45.442;9.212;2024-03-08T05:29:05;29.67;;;14.48;;
70169;SDS011;57543;45.442;9.212;2024-03-08T05:32:12;27.20;;;14.17;;
70169;SDS011;57543;45.442;9.212;2024-03-08T05:35:15;25.15;;;14.25;;
70169;SDS011;57543;45.442;9.212;2024-03-08T05:38:24;26.40;;;13.57;;
70169;SDS011;57543;45.442;9.212;2024-03-08T05:41:28;27.60;;;13.98;;
70169;SDS011;57543;45.442;9.212;2024-03-08T05:44:32;25.48;;;14.30;;
70169;SDS011;57543;45.442;9.212;2024-03-08T05:47:36;25.33;;;13.83;;
70169;SDS011;57543;45.442;9.212;2024-03-08T05:50:39;28.48;;;13.40;;
70169;SDS011;57543;45.442;9.212;2024-03-08T05:53:43;24.25;;;13.20;;
70169;SDS011;57543;45.442;9.212;2024-03-08T05:56:46;27.65;;;13.45;;
70169;SDS011;57543;45.442;9.212;2024-03-08T05:59:52;26.92;;;13.10;;
70169;SDS011;57543;45.442;9.212;2024-03-08T06:02:56;24.97;;;12.50;;
70169;SDS011;57543;45.442;9.212;2024-03-08T06:06:02;24.55;;;13.10;;
70169;SDS011;57543;45.442;9.212;2024-03-08T06:09:05;26.55;;;13.73;;
70169;SDS011;57543;45.442;9.212;2024-03-08T06:12:15;23.88;;;12.52;;
70169;SDS011;57543;45.442;9.212;2024-03-08T06:15:22;26.10;;;13.15;;
70169;SDS011;57543;45.442;9.212;2024-03-08T06:18:26;23.80;;;12.83;;
70169;SDS011;57543;45.442;9.212;2024-03-08T06:21:29;23.67;;;13.00;;
70169;SDS011;57543;45.442;9.212;2024-03-08T06:24:36;25.02;;;12.60;;
70169;SDS011;57543;45.442;9.212;2024-03-08T06:27:42;26.10;;;13.05;;
70169;SDS011;57543;45.442;9.212;2024-03-08T06:30:46;26.70;;;13.38;;
70169;SDS011;57543;45.442;9.212;2024-03-08T06:33:51;25.33;;;12.53;;
70169;SDS011;57543;45.442;9.212;2024-03-08T06:36:57;25.85;;;12.77;;
70169;SDS011;57543;45.442;9.212;2024-03-08T06:40:04;23.30;;;12.63;;
70169;SDS011;57543;45.442;9.212;2024-03-08T06:43:11;26.25;;;13.70;;
70169;SDS011;57543;45.442;9.212;2024-03-08T06:46:17;24.50;;;11.82;;
70169;SDS011;57543;45.442;9.212;2024-03-08T06:49:21;24.30;;;12.77;;
70169;SDS011;57543;45.442;9.212;2024-03-08T06:52:27;27.02;;;12.85;;
70169;SDS011;57543;45.442;9.212;2024-03-08T06:55:31;27.23;;;13.13;;
70169;SDS011;57543;45.442;9.212;2024-03-08T06:58:42;24.80;;;12.07;;
70169;SDS011;57543;45.442;9.212;2024-03-08T07:01:48;24.67;;;12.73;;
70169;SDS011;57543;45.442;9.212;2024-03-08T07:04:57;23.93;;;12.17;;
70169;SDS011;57543;45.442;9.212;2024-03-08T07:08:05;24.13;;;13.30;;
70169;SDS011;57543;45.442;9.212;2024-03-08T07:11:12;22.90;;;12.45;;
70169;SDS011;57543;45.442;9.212;2024-03-08T07:14:19;23.30;;;12.05;;
70169;SDS011;57543;45.442;9.212;2024-03-08T07:17:25;21.88;;;11.63;;
70169;SDS011;57543;45.442;9.212;2024-03-08T07:20:29;23.63;;;12.03;;
70169;SDS011;57543;45.442;9.212;2024-03-08T07:23:33;22.05;;;11.63;;
70169;SDS011;57543;45.442;9.212;2024-03-08T07:26:56;25.15;;;11.85;;
70169;SDS011;57543;45.442;9.212;2024-03-08T07:30:01;21.60;;;11.45;;
70169;SDS011;57543;45.442;9.212;2024-03-08T07:33:05;22.08;;;11.38;;
70169;SDS011;57543;45.442;9.212;2024-03-08T07:36:14;27.30;;;10.77;;
70169;SDS011;57543;45.442;9.212;2024-03-08T07:39:18;20.30;;;10.88;;
70169;SDS011;57543;45.442;9.212;2024-03-08T07:42:22;20.25;;;10.80;;
70169;SDS011;57543;45.442;9.212;2024-03-08T07:45:27;22.30;;;10.77;;
70169;SDS011;57543;45.442;9.212;2024-03-08T07:48:31;19.77;;;10.48;;
70169;SDS011;57543;45.442;9.212;2024-03-08T07:51:35;21.93;;;10.57;;
70169;SDS011;57543;45.442;9.212;2024-03-08T07:54:39;19.48;;;10.88;;
70169;SDS011;57543;45.442;9.212;2024-03-08T07:57:43;20.08;;;10.77;;
70169;SDS011;57543;45.442;9.212;2024-03-08T08:00:57;23.33;;;10.98;;
70169;SDS011;57543;45.442;9.212;2024-03-08T08:04:01;20.55;;;10.65;;
70169;SDS011;57543;45.442;9.212;2024-03-08T08:07:06;20.20;;;10.77;;
70169;SDS011;57543;45.442;9.212;2024-03-08T08:10:12;21.70;;;10.98;;
70169;SDS011;57543;45.442;9.212;2024-03-08T08:13:24;20.05;;;10.45;;
70169;SDS011;57543;45.442;9.212;2024-03-08T08:16:31;23.00;;;11.10;;
70169;SDS011;57543;45.442;9.212;2024-03-08T08:19:35;22.48;;;11.70;;
70169;SDS011;57543;45.442;9.212;2024-03-08T08:22:39;20.27;;;11.37;;
70169;SDS011;57543;45.442;9.212;2024-03-08T08:25:51;22.55;;;11.15;;
70169;SDS011;57543;45.442;9.212;2024-03-08T08:28:55;23.42;;;12.25;;
70169;SDS011;57543;45.442;9.212;2024-03-08T08:31:59;22.63;;;11.32;;
70169;SDS011;57543;45.442;9.212;2024-03-08T08:35:03;32.72;;;12.55;;
70169;SDS011;57543;45.442;9.212;2024-03-08T08:38:11;20.93;;;10.70;;
70169;SDS011;57543;45.442;9.212;2024-03-08T08:41:21;24.58;;;11.63;;
70169;SDS011;57543;45.442;9.212;2024-03-08T08:44:25;20.52;;;10.82;;
70169;SDS011;57543;45.442;9.212;2024-03-08T08:47:31;20.95;;;10.48;;
70169;SDS011;57543;45.442;9.212;2024-03-08T08:50:37;21.88;;;10.52;;
70169;SDS011;57543;45.442;9.212;2024-03-08T08:53:48;19.93;;;10.43;;
70169;SDS011;57543;45.442;9.212;2024-03-08T08:56:52;19.55;;;9.45;;
70169;SDS011;57543;45.442;9.212;2024-03-08T08:59:57;18.35;;;9.77;;
70169;SDS011;57543;45.442;9.212;2024-03-08T09:03:02;19.88;;;10.65;;
70169;SDS011;57543;45.442;9.212;2024-03-08T09:06:07;18.42;;;10.02;;
70169;SDS011;57543;45.442;9.212;2024-03-08T09:09:16;20.33;;;9.90;;
70169;SDS011;57543;45.442;9.212;2024-03-08T09:12:26;21.85;;;10.13;;
70169;SDS011;57543;45.442;9.212;2024-03-08T09:15:32;22.10;;;10.93;;
70169;SDS011;57543;45.442;9.212;2024-03-08T09:18:48;20.02;;;9.80;;
70169;SDS011;57543;45.442;9.212;2024-03-08T09:21:51;23.92;;;11.27;;
70169;SDS011;57543;45.442;9.212;2024-03-08T09:24:55;20.93;;;10.50;;
70169;SDS011;57543;45.442;9.212;2024-03-08T09:27:59;21.40;;;10.38;;
70169;SDS011;57543;45.442;9.212;2024-03-08T09:31:03;19.42;;;11.00;;
70169;SDS011;57543;45.442;9.212;2024-03-08T09:34:16;21.60;;;11.27;;
70169;SDS011;57543;45.442;9.212;2024-03-08T09:37:22;19.55;;;10.82;;
70169;SDS011;57543;45.442;9.212;2024-03-08T09:40:31;22.67;;;11.43;;
70169;SDS011;57543;45.442;9.212;2024-03-08T09:43:38;21.65;;;10.98;;
70169;SDS011;57543;45.442;9.212;2024-03-08T09:46:46;23.55;;;10.73;;
70169;SDS011;57543;45.442;9.212;2024-03-08T09:49:54;22.00;;;10.60;;
70169;SDS011;57543;45.442;9.212;2024-03-08T09:52:58;28.05;;;13.18;;
70169;SDS011;57543;45.442;9.212;2024-03-08T09:56:02;23.17;;;11.60;;
70169;SDS011;57543;45.442;9.212;2024-03-08T09:59:07;25.40;;;13.43;;
70169;SDS011;57543;45.442;9.212;2024-03-08T10:02:26;25.13;;;11.50;;
70169;SDS011;57543;45.442;9.212;2024-03-08T10:05:32;20.48;;;10.63;;
70169;SDS011;57543;45.442;9.212;2024-03-08T10:08:36;22.92;;;10.73;;
70169;SDS011;57543;45.442;9.212;2024-03-08T10:11:42;19.90;;;10.30;;
70169;SDS011;57543;45.442;9.212;2024-03-08T10:14:46;21.67;;;10.57;;
70169;SDS011;57543;45.442;9.212;2024-03-08T10:17:50;19.20;;;11.05;;
70169;SDS011;57543;45.442;9.212;2024-03-08T10:21:07;22.75;;;10.85;;
70169;SDS011;57543;45.442;9.212;2024-03-08T10:24:14;21.08;;;11.80;;
70169;SDS011;57543;45.442;9.212;2024-03-08T10:27:18;21.97;;;11.17;;
70169;SDS011;57543;45.442;9.212;2024-03-08T10:30:24;20.25;;;10.38;;
70169;SDS011;57543;45.442;9.212;2024-03-08T10:33:28;21.30;;;11.43;;
70169;SDS011;57543;45.442;9.212;2024-03-08T10:36:35;23.15;;;11.75;;
70169;SDS011;57543;45.442;9.212;2024-03-08T10:39:41;22.10;;;11.60;;
70169;SDS011;57543;45.442;9.212;2024-03-08T10:43:00;20.70;;;11.83;;
70169;SDS011;57543;45.442;9.212;2024-03-08T10:46:12;18.55;;;10.50;;
70169;SDS011;57543;45.442;9.212;2024-03-08T10:49:32;20.80;;;11.13;;
70169;SDS011;57543;45.442;9.212;2024-03-08T10:52:43;21.92;;;12.13;;
70169;SDS011;57543;45.442;9.212;2024-03-08T10:55:47;21.17;;;11.68;;
70169;SDS011;57543;45.442;9.212;2024-03-08T10:58:52;19.33;;;10.37;;
70169;SDS011;57543;45.442;9.212;2024-03-08T11:02:03;22.95;;;11.80;;
70169;SDS011;57543;45.442;9.212;2024-03-08T11:05:10;19.30;;;9.75;;
70169;SDS011;57543;45.442;9.212;2024-03-08T11:08:34;19.33;;;9.80;;
70169;SDS011;57543;45.442;9.212;2024-03-08T11:11:42;18.13;;;9.80;;
70169;SDS011;57543;45.442;9.212;2024-03-08T11:14:46;19.87;;;10.20;;
70169;SDS011;57543;45.442;9.212;2024-03-08T11:17:57;16.25;;;9.18;;
70169;SDS011;57543;45.442;9.212;2024-03-08T11:21:02;18.38;;;10.38;;
70169;SDS011;57543;45.442;9.212;2024-03-08T11:24:10;18.42;;;10.02;;
70169;SDS011;57543;45.442;9.212;2024-03-08T11:27:16;19.90;;;9.90;;
70169;SDS011;57543;45.442;9.212;2024-03-08T11:30:21;16.83;;;9.13;;
70169;SDS011;57543;45.442;9.212;2024-03-08T11:33:34;19.05;;;9.20;;
70169;SDS011;57543;45.442;9.212;2024-03-08T11:36:41;17.25;;;10.00;;
70169;SDS011;57543;45.442;9.212;2024-03-08T11:39:52;20.23;;;9.23;;
70169;SDS011;57543;45.442;9.212;2024-03-08T11:43:01;17.20;;;9.35;;
70169;SDS011;57543;45.442;9.212;2024-03-08T11:46:10;17.00;;;9.30;;
70169;SDS011;57543;45.442;9.212;2024-03-08T11:49:17;20.10;;;9.77;;
70169;SDS011;57543;45.442;9.212;2024-03-08T11:52:21;17.02;;;8.93;;
70169;SDS011;57543;45.442;9.212;2024-03-08T11:55:28;15.77;;;8.50;;
70169;SDS011;57543;45.442;9.212;2024-03-08T11:58:41;17.80;;;9.63;;
70169;SDS011;57543;45.442;9.212;2024-03-08T12:01:56;18.60;;;8.70;;
70169;SDS011;57543;45.442;9.212;2024-03-08T12:05:02;16.25;;;8.90;;
70169;SDS011;57543;45.442;9.212;2024-03-08T12:08:06;18.33;;;9.48;;
70169;SDS011;57543;45.442;9.212;2024-03-08T12:11:19;19.08;;;9.63;;
70169;SDS011;57543;45.442;9.212;2024-03-08T12:14:27;17.95;;;9.50;;
70169;SDS011;57543;45.442;9.212;2024-03-08T12:17:31;19.47;;;10.03;;
70169;SDS011;57543;45.442;9.212;2024-03-08T12:20:36;18.08;;;9.35;;
70169;SDS011;57543;45.442;9.212;2024-03-08T12:23:45;16.00;;;8.93;;
70169;SDS011;57543;45.442;9.212;2024-03-08T12:26:51;17.70;;;9.57;;
70169;SDS011;57543;45.442;9.212;2024-03-08T12:29:56;16.20;;;9.32;;
70169;SDS011;57543;45.442;9.212;2024-03-08T12:33:02;18.53;;;9.43;;
70169;SDS011;57543;45.442;9.212;2024-03-08T12:36:06;17.75;;;9.90;;
70169;SDS011;57543;45.442;9.212;2024-03-08T12:39:17;18.27;;;9.27;;
70169;SDS011;57543;45.442;9.212;2024-03-08T12:42:25;16.65;;;9.02;;
70169;SDS011;57543;45.442;9.212;2024-03-08T12:45:29;16.35;;;9.13;;
70169;SDS011;57543;45.442;9.212;2024-03-08T12:48:35;18.43;;;9.53;;
70169;SDS011;57543;45.442;9.212;2024-03-08T12:51:44;19.27;;;9.50;;
70169;SDS011;57543;45.442;9.212;2024-03-08T12:54:48;17.85;;;9.05;;
70169;SDS011;57543;45.442;9.212;2024-03-08T12:57:55;20.58;;;9.52;;
70169;SDS011;57543;45.442;9.212;2024-03-08T13:00:58;17.73;;;10.18;;
70169;SDS011;57543;45.442;9.212;2024-03-08T13:04:02;17.43;;;9.80;;
70169;SDS011;57543;45.442;9.212;2024-03-08T13:07:08;17.42;;;9.30;;
70169;SDS011;57543;45.442;9.212;2024-03-08T13:10:20;17.55;;;9.73;;
70169;SDS011;57543;45.442;9.212;2024-03-08T13:13:24;17.88;;;9.18;;
70169;SDS011;57543;45.442;9.212;2024-03-08T13:16:40;18.40;;;9.07;;
70169;SDS011;57543;45.442;9.212;2024-03-08T13:19:51;16.17;;;8.83;;
70169;SDS011;57543;45.442;9.212;2024-03-08T13:22:54;19.92;;;9.75;;
70169;SDS011;57543;45.442;9.212;2024-03-08T13:25:58;19.30;;;9.85;;
70169;SDS011;57543;45.442;9.212;2024-03-08T13:29:05;16.88;;;9.18;;
70169;SDS011;57543;45.442;9.212;2024-03-08T13:32:10;15.40;;;8.65;;
70169;SDS011;57543;45.442;9.212;2024-03-08T13:35:17;18.27;;;9.07;;
70169;SDS011;57543;45.442;9.212;2024-03-08T13:38:27;16.17;;;9.05;;
70169;SDS011;57543;45.442;9.212;2024-03-08T13:41:32;18.63;;;10.20;;
70169;SDS011;57543;45.442;9.212;2024-03-08T13:44:39;19.55;;;9.63;;
70169;SDS011;57543;45.442;9.212;2024-03-08T13:47:55;16.30;;;8.73;;
70169;SDS011;57543;45.442;9.212;2024-03-08T13:50:59;16.60;;;8.80;;
70169;SDS011;57543;45.442;9.212;2024-03-08T13:54:03;18.33;;;9.00;;
70169;SDS011;57543;45.442;9.212;2024-03-08T13:57:13;15.45;;;8.85;;
70169;SDS011;57543;45.442;9.212;2024-03-08T14:00:16;15.82;;;8.43;;
70169;SDS011;57543;45.442;9.212;2024-03-08T14:03:21;15.40;;;8.68;;
70169;SDS011;57543;45.442;9.212;2024-03-08T14:06:47;17.63;;;9.47;;
70169;SDS011;57543;45.442;9.212;2024-03-08T14:09:52;19.52;;;9.75;;
70169;SDS011;57543;45.442;9.212;2024-03-08T14:12:57;17.75;;;9.18;;
70169;SDS011;57543;45.442;9.212;2024-03-08T14:16:01;16.20;;;9.48;;
70169;SDS011;57543;45.442;9.212;2024-03-08T14:19:05;19.10;;;9.43;;
70169;SDS011;57543;45.442;9.212;2024-03-08T14:22:09;16.93;;;9.10;;
70169;SDS011;57543;45.442;9.212;2024-03-08T14:25:17;18.27;;;9.55;;
70169;SDS011;57543;45.442;9.212;2024-03-08T14:28:24;18.05;;;8.98;;
70169;SDS011;57543;45.442;9.212;2024-03-08T14:31:31;18.85;;;9.57;;
70169;SDS011;57543;45.442;9.212;2024-03-08T14:34:37;19.85;;;9.73;;
70169;SDS011;57543;45.442;9.212;2024-03-08T14:37:47;20.40;;;10.20;;
70169;SDS011;57543;45.442;9.212;2024-03-08T14:40:51;16.35;;;8.70;;
70169;SDS011;57543;45.442;9.212;2024-03-08T14:43:56;18.80;;;9.57;;
70169;SDS011;57543;45.442;9.212;2024-03-08T14:47:00;19.02;;;10.07;;
70169;SDS011;57543;45.442;9.212;2024-03-08T14:50:04;17.48;;;9.38;;
70169;SDS011;57543;45.442;9.212;2024-03-08T14:53:10;17.97;;;9.53;;
70169;SDS011;57543;45.442;9.212;2024-03-08T14:56:18;17.70;;;10.20;;
70169;SDS011;57543;45.442;9.212;2024-03-08T14:59:27;18.63;;;11.20;;
70169;SDS011;57543;45.442;9.212;2024-03-08T15:02:32;16.15;;;9.48;;
70169;SDS011;57543;45.442;9.212;2024-03-08T15:05:40;18.63;;;10.25;;
70169;SDS011;57543;45.442;9.212;2024-03-08T15:08:50;18.37;;;10.77;;
70169;SDS011;57543;45.442;9.212;2024-03-08T15:11:55;20.25;;;9.77;;
70169;SDS011;57543;45.442;9.212;2024-03-08T15:15:11;17.42;;;9.68;;
70169;SDS011;57543;45.442;9.212;2024-03-08T15:18:17;15.48;;;9.40;;
70169;SDS011;57543;45.442;9.212;2024-03-08T15:21:21;18.20;;;9.75;;
70169;SDS011;57543;45.442;9.212;2024-03-08T15:24:26;15.33;;;9.10;;
70169;SDS011;57543;45.442;9.212;2024-03-08T15:27:32;17.67;;;9.55;;
70169;SDS011;57543;45.442;9.212;2024-03-08T15:30:35;18.45;;;10.05;;
70169;SDS011;57543;45.442;9.212;2024-03-08T15:33:39;18.20;;;9.65;;
70169;SDS011;57543;45.442;9.212;2024-03-08T15:36:52;20.40;;;9.77;;
70169;SDS011;57543;45.442;9.212;2024-03-08T15:39:59;16.97;;;9.03;;
70169;SDS011;57543;45.442;9.212;2024-03-08T15:43:09;18.25;;;9.25;;
70169;SDS011;57543;45.442;9.212;2024-03-08T15:46:13;16.73;;;8.55;;
70169;SDS011;57543;45.442;9.212;2024-03-08T15:49:19;15.65;;;8.30;;
70169;SDS011;57543;45.442;9.212;2024-03-08T15:52:42;15.70;;;8.85;;
70169;SDS011;57543;45.442;9.212;2024-03-08T15:55:47;15.13;;;8.60;;
70169;SDS011;57543;45.442;9.212;2024-03-08T15:58:51;15.52;;;8.38;;
70169;SDS011;57543;45.442;9.212;2024-03-08T16:01:55;16.90;;;9.00;;
70169;SDS011;57543;45.442;9.212;2024-03-08T16:04:58;15.48;;;8.60;;
70169;SDS011;57543;45.442;9.212;2024-03-08T16:08:04;17.27;;;9.13;;
70169;SDS011;57543;45.442;9.212;2024-03-08T16:11:11;16.47;;;9.00;;
70169;SDS011;57543;45.442;9.212;2024-03-08T16:14:14;15.77;;;9.13;;
70169;SDS011;57543;45.442;9.212;2024-03-08T16:17:28;15.38;;;8.52;;
70169;SDS011;57543;45.442;9.212;2024-03-08T16:20:35;16.27;;;9.00;;
70169;SDS011;57543;45.442;9.212;2024-03-08T16:23:50;17.90;;;9.63;;
70169;SDS011;57543;45.442;9.212;2024-03-08T16:27:03;18.33;;;9.90;;
70169;SDS011;57543;45.442;9.212;2024-03-08T16:30:13;17.42;;;10.07;;
70169;SDS011;57543;45.442;9.212;2024-03-08T16:33:20;24.08;;;11.13;;
70169;SDS011;57543;45.442;9.212;2024-03-08T16:36:25;16.63;;;9.52;;
70169;SDS011;57543;45.442;9.212;2024-03-08T16:39:32;17.98;;;10.05;;
70169;SDS011;57543;45.442;9.212;2024-03-08T16:42:36;17.17;;;10.03;;
70169;SDS011;57543;45.442;9.212;2024-03-08T16:45:49;19.92;;;10.60;;
70169;SDS011;57543;45.442;9.212;2024-03-08T16:48:54;18.95;;;10.88;;
70169;SDS011;57543;45.442;9.212;2024-03-08T16:52:00;17.08;;;9.75;;
70169;SDS011;57543;45.442;9.212;2024-03-08T16:55:04;19.73;;;9.70;;
70169;SDS011;57543;45.442;9.212;2024-03-08T16:58:09;18.90;;;9.77;;
70169;SDS011;57543;45.442;9.212;2024-03-08T17:01:17;19.55;;;9.88;;
70169;SDS011;57543;45.442;9.212;2024-03-08T17:04:21;16.98;;;9.73;;
70169;SDS011;57543;45.442;9.212;2024-03-08T17:07:25;17.25;;;9.02;;
70169;SDS011;57543;45.442;9.212;2024-03-08T17:10:34;20.45;;;9.90;;
70169;SDS011;57543;45.442;9.212;2024-03-08T17:13:43;18.60;;;10.23;;
70169;SDS011;57543;45.442;9.212;2024-03-08T17:16:47;18.90;;;10.00;;
70169;SDS011;57543;45.442;9.212;2024-03-08T17:19:51;19.95;;;10.02;;
70169;SDS011;57543;45.442;9.212;2024-03-08T17:22:55;17.35;;;9.32;;
70169;SDS011;57543;45.442;9.212;2024-03-08T17:26:00;17.13;;;9.40;;
70169;SDS011;57543;45.442;9.212;2024-03-08T17:29:05;18.50;;;9.47;;
70169;SDS011;57543;45.442;9.212;2024-03-08T17:32:11;16.67;;;9.48;;
70169;SDS011;57543;45.442;9.212;2024-03-08T17:35:17;16.63;;;9.40;;
70169;SDS011;57543;45.442;9.212;2024-03-08T17:38:23;16.15;;;9.02;;
70169;SDS011;57543;45.442;9.212;2024-03-08T17:41:30;18.52;;;9.57;;
70169;SDS011;57543;45.442;9.212;2024-03-08T17:44:36;17.37;;;10.20;;
70169;SDS011;57543;45.442;9.212;2024-03-08T17:47:44;17.23;;;9.00;;
70169;SDS011;57543;45.442;9.212;2024-03-08T17:50:51;19.02;;;10.18;;
70169;SDS011;57543;45.442;9.212;2024-03-08T17:53:57;16.80;;;8.65;;
70169;SDS011;57543;45.442;9.212;2024-03-08T17:57:02;16.30;;;9.20;;
70169;SDS011;57543;45.442;9.212;2024-03-08T18:00:11;17.17;;;9.10;;
70169;SDS011;57543;45.442;9.212;2024-03-08T18:03:38;16.52;;;9.02;;
70169;SDS011;57543;45.442;9.212;2024-03-08T18:06:43;16.15;;;8.73;;
70169;SDS011;57543;45.442;9.212;2024-03-08T18:09:47;17.17;;;8.50;;
70169;SDS011;57543;45.442;9.212;2024-03-08T18:12:51;17.63;;;9.05;;
70169;SDS011;57543;45.442;9.212;2024-03-08T18:16:09;16.17;;;9.17;;